sensor_id;sensor_type;location;lat;lon;timestamp;temperature;humidity
26342;DHT22;14054;50.108;8.640;2023-04-12T00:00:37;10.50;99.90
26342;DHT22;14054;50.108;8.640;2023-04-12T00:03:04;10.50;99.90
26342;DHT22;14054;50.108;8.640;2023-04-12T00:05:30;10.40;99.90
26342;DHT22;14054;50.108;8.640;2023-04-12T00:07:55;10.50;99.90
26342;DHT22;14054;50.108;8.640;2023-04-12T00:10:21;10.60;99.90
26342;DHT22;14054;50.108;8.640;2023-04-12T00:12:47;10.50;99.90
26342;DHT22;14054;50.108;8.640;2023-04-12T00:15:12;10.50;99.90
26342;DHT22;14054;50.108;8.640;2023-04-12T00:17:38;10.50;99.90
26342;DHT22;14054;50.108;8.640;2023-04-12T00:20:04;10.60;99.90
26342;DHT22;14054;50.108;8.640;2023-04-12T00:22:30;10.60;99.90
26342;DHT22;14054;50.108;8.640;2023-04-12T00:24:55;10.60;99.90
26342;DHT22;14054;50.108;8.640;2023-04-12T00:27:21;10.70;99.90
26342;DHT22;14054;50.108;8.640;2023-04-12T00:29:46;10.60;99.90
26342;DHT22;14054;50.108;8.640;2023-04-12T00:32:11;10.60;99.90
26342;DHT22;14054;50.108;8.640;2023-04-12T00:34:37;10.60;99.90
26342;DHT22;14054;50.108;8.640;2023-04-12T00:37:02;10.60;99.90
26342;DHT22;14054;50.108;8.640;2023-04-12T00:39:28;10.50;99.90
26342;DHT22;14054;50.108;8.640;2023-04-12T00:41:53;10.50;99.90
26342;DHT22;14054;50.108;8.640;2023-04-12T00:44:21;10.50;99.90
26342;DHT22;14054;50.108;8.640;2023-04-12T00:46:47;10.40;99.90
26342;DHT22;14054;50.108;8.640;2023-04-12T00:49:12;10.40;99.90
26342;DHT22;14054;50.108;8.640;2023-04-12T00:51:39;10.30;99.90
26342;DHT22;14054;50.108;8.640;2023-04-12T00:54:05;10.30;99.90
26342;DHT22;14054;50.108;8.640;2023-04-12T00:56:31;10.20;99.90
26342;DHT22;14054;50.108;8.640;2023-04-12T00:58:57;10.20;99.90
26342;DHT22;14054;50.108;8.640;2023-04-12T01:01:22;10.20;99.90
26342;DHT22;14054;50.108;8.640;2023-04-12T01:03:48;10.20;99.90
26342;DHT22;14054;50.108;8.640;2023-04-12T01:09:02;10.10;99.90
26342;DHT22;14054;50.108;8.640;2023-04-12T01:11:31;10.00;99.90
26342;DHT22;14054;50.108;8.640;2023-04-12T01:14:02;9.90;99.90
26342;DHT22;14054;50.108;8.640;2023-04-12T01:18:59;9.90;99.90
26342;DHT22;14054;50.108;8.640;2023-04-12T01:21:30;9.70;99.90
26342;DHT22;14054;50.108;8.640;2023-04-12T01:24:00;9.80;99.90
26342;DHT22;14054;50.108;8.640;2023-04-12T01:29:03;9.70;99.90
26342;DHT22;14054;50.108;8.640;2023-04-12T01:31:31;9.60;99.90
26342;DHT22;14054;50.108;8.640;2023-04-12T01:33:59;9.60;99.90
26342;DHT22;14054;50.108;8.640;2023-04-12T01:41:19;9.40;99.90
26342;DHT22;14054;50.108;8.640;2023-04-12T01:43:45;9.50;99.90
26342;DHT22;14054;50.108;8.640;2023-04-12T01:48:37;9.20;99.90
26342;DHT22;14054;50.108;8.640;2023-04-12T01:51:04;9.10;99.90
26342;DHT22;14054;50.108;8.640;2023-04-12T01:53:31;9.20;99.90
26342;DHT22;14054;50.108;8.640;2023-04-12T01:56:00;9.20;99.90
26342;DHT22;14054;50.108;8.640;2023-04-12T01:58:27;9.30;99.90
26342;DHT22;14054;50.108;8.640;2023-04-12T02:00:53;9.20;99.90
26342;DHT22;14054;50.108;8.640;2023-04-12T02:03:20;9.20;99.90
26342;DHT22;14054;50.108;8.640;2023-04-12T02:05:47;9.10;99.90
26342;DHT22;14054;50.108;8.640;2023-04-12T02:10:39;8.90;99.90
26342;DHT22;14054;50.108;8.640;2023-04-12T02:13:05;8.90;99.90
26342;DHT22;14054;50.108;8.640;2023-04-12T02:15:30;8.80;99.90
26342;DHT22;14054;50.108;8.640;2023-04-12T02:17:56;8.80;99.90
26342;DHT22;14054;50.108;8.640;2023-04-12T02:20:23;8.80;99.90
26342;DHT22;14054;50.108;8.640;2023-04-12T02:22:49;8.80;99.90
26342;DHT22;14054;50.108;8.640;2023-04-12T02:25:15;8.80;99.90
26342;DHT22;14054;50.108;8.640;2023-04-12T02:27:42;8.70;99.90
26342;DHT22;14054;50.108;8.640;2023-04-12T02:30:08;8.70;99.90
26342;DHT22;14054;50.108;8.640;2023-04-12T02:35:11;8.60;99.90
26342;DHT22;14054;50.108;8.640;2023-04-12T02:37:37;8.60;99.90
26342;DHT22;14054;50.108;8.640;2023-04-12T02:40:03;8.60;99.90
26342;DHT22;14054;50.108;8.640;2023-04-12T02:42:30;8.60;99.90
26342;DHT22;14054;50.108;8.640;2023-04-12T02:44:55;8.50;99.90
26342;DHT22;14054;50.108;8.640;2023-04-12T02:47:21;8.50;99.90
26342;DHT22;14054;50.108;8.640;2023-04-12T02:49:46;8.40;99.90
26342;DHT22;14054;50.108;8.640;2023-04-12T02:52:12;8.30;99.90
26342;DHT22;14054;50.108;8.640;2023-04-12T02:54:37;8.30;99.90
26342;DHT22;14054;50.108;8.640;2023-04-12T02:57:03;8.30;99.90
26342;DHT22;14054;50.108;8.640;2023-04-12T02:59:28;8.30;99.90
26342;DHT22;14054;50.108;8.640;2023-04-12T03:01:55;8.30;99.90
26342;DHT22;14054;50.108;8.640;2023-04-12T03:04:20;8.30;99.90
26342;DHT22;14054;50.108;8.640;2023-04-12T03:06:46;8.30;99.90
26342;DHT22;14054;50.108;8.640;2023-04-12T03:09:18;8.30;99.90
26342;DHT22;14054;50.108;8.640;2023-04-12T03:11:44;8.20;99.90
26342;DHT22;14054;50.108;8.640;2023-04-12T03:14:10;8.20;99.90
26342;DHT22;14054;50.108;8.640;2023-04-12T03:16:35;8.20;99.90
26342;DHT22;14054;50.108;8.640;2023-04-12T03:19:01;8.30;99.90
26342;DHT22;14054;50.108;8.640;2023-04-12T03:21:27;8.20;99.90
26342;DHT22;14054;50.108;8.640;2023-04-12T03:23:53;8.20;99.90
26342;DHT22;14054;50.108;8.640;2023-04-12T03:26:18;8.10;99.90
26342;DHT22;14054;50.108;8.640;2023-04-12T03:28:47;8.10;99.90
26342;DHT22;14054;50.108;8.640;2023-04-12T03:31:13;8.10;99.90
26342;DHT22;14054;50.108;8.640;2023-04-12T03:33:39;8.10;99.90
26342;DHT22;14054;50.108;8.640;2023-04-12T03:36:05;8.10;99.90
26342;DHT22;14054;50.108;8.640;2023-04-12T03:38:31;8.10;99.90
26342;DHT22;14054;50.108;8.640;2023-04-12T03:40:57;8.10;99.90
26342;DHT22;14054;50.108;8.640;2023-04-12T03:43:22;8.10;99.90
26342;DHT22;14054;50.108;8.640;2023-04-12T03:45:47;8.10;99.90
26342;DHT22;14054;50.108;8.640;2023-04-12T03:48:13;8.00;99.90
26342;DHT22;14054;50.108;8.640;2023-04-12T03:50:39;7.90;99.90
26342;DHT22;14054;50.108;8.640;2023-04-12T03:53:12;7.90;99.90
26342;DHT22;14054;50.108;8.640;2023-04-12T03:55:38;7.90;99.90
26342;DHT22;14054;50.108;8.640;2023-04-12T03:58:03;7.90;99.90
26342;DHT22;14054;50.108;8.640;2023-04-12T04:00:29;7.90;99.90
26342;DHT22;14054;50.108;8.640;2023-04-12T04:02:56;7.90;99.90
26342;DHT22;14054;50.108;8.640;2023-04-12T04:05:27;7.90;99.90
26342;DHT22;14054;50.108;8.640;2023-04-12T04:07:54;7.90;99.90
26342;DHT22;14054;50.108;8.640;2023-04-12T04:10:19;8.00;99.90
26342;DHT22;14054;50.108;8.640;2023-04-12T04:12:45;8.00;99.90
26342;DHT22;14054;50.108;8.640;2023-04-12T04:15:10;7.90;99.90
26342;DHT22;14054;50.108;8.640;2023-04-12T04:17:36;8.00;99.90
26342;DHT22;14054;50.108;8.640;2023-04-12T04:20:01;8.00;99.90
26342;DHT22;14054;50.108;8.640;2023-04-12T04:22:29;7.90;99.90
26342;DHT22;14054;50.108;8.640;2023-04-12T04:24:56;8.00;99.90
26342;DHT22;14054;50.108;8.640;2023-04-12T04:27:22;7.90;99.90
26342;DHT22;14054;50.108;8.640;2023-04-12T04:29:48;8.00;99.90
26342;DHT22;14054;50.108;8.640;2023-04-12T04:32:15;8.00;99.90
26342;DHT22;14054;50.108;8.640;2023-04-12T04:34:40;8.00;99.90
26342;DHT22;14054;50.108;8.640;2023-04-12T04:37:06;7.90;99.90
26342;DHT22;14054;50.108;8.640;2023-04-12T04:39:31;7.90;99.90
26342;DHT22;14054;50.108;8.640;2023-04-12T04:41:57;7.80;99.90
26342;DHT22;14054;50.108;8.640;2023-04-12T04:44:22;7.90;99.90
26342;DHT22;14054;50.108;8.640;2023-04-12T04:46:49;7.90;99.90
26342;DHT22;14054;50.108;8.640;2023-04-12T04:49:15;7.90;99.90
26342;DHT22;14054;50.108;8.640;2023-04-12T04:51:41;7.90;99.90
26342;DHT22;14054;50.108;8.640;2023-04-12T04:54:06;8.00;99.90
26342;DHT22;14054;50.108;8.640;2023-04-12T04:56:32;8.00;99.90
26342;DHT22;14054;50.108;8.640;2023-04-12T04:58:57;7.90;99.90
26342;DHT22;14054;50.108;8.640;2023-04-12T05:01:23;7.90;99.90
26342;DHT22;14054;50.108;8.640;2023-04-12T05:03:52;7.80;99.90
26342;DHT22;14054;50.108;8.640;2023-04-12T05:06:19;7.90;99.90
26342;DHT22;14054;50.108;8.640;2023-04-12T05:08:45;7.90;99.90
26342;DHT22;14054;50.108;8.640;2023-04-12T05:11:10;8.00;99.90
26342;DHT22;14054;50.108;8.640;2023-04-12T05:13:35;7.90;99.90
26342;DHT22;14054;50.108;8.640;2023-04-12T05:16:04;7.90;99.90
26342;DHT22;14054;50.108;8.640;2023-04-12T05:18:30;7.90;99.90
26342;DHT22;14054;50.108;8.640;2023-04-12T05:21:00;8.00;99.90
26342;DHT22;14054;50.108;8.640;2023-04-12T05:23:26;7.90;99.90
26342;DHT22;14054;50.108;8.640;2023-04-12T05:25:52;8.00;99.90
26342;DHT22;14054;50.108;8.640;2023-04-12T05:28:17;7.80;99.90
26342;DHT22;14054;50.108;8.640;2023-04-12T05:30:43;7.90;99.90
26342;DHT22;14054;50.108;8.640;2023-04-12T05:33:09;7.80;99.90
26342;DHT22;14054;50.108;8.640;2023-04-12T05:35:34;7.90;99.90
26342;DHT22;14054;50.108;8.640;2023-04-12T05:38:00;7.80;99.90
26342;DHT22;14054;50.108;8.640;2023-04-12T05:40:25;7.80;99.90
26342;DHT22;14054;50.108;8.640;2023-04-12T05:42:50;7.80;99.90
26342;DHT22;14054;50.108;8.640;2023-04-12T05:45:16;7.70;99.90
26342;DHT22;14054;50.108;8.640;2023-04-12T05:47:41;7.70;99.90
26342;DHT22;14054;50.108;8.640;2023-04-12T05:50:07;7.70;99.90
26342;DHT22;14054;50.108;8.640;2023-04-12T05:52:32;7.80;99.90
26342;DHT22;14054;50.108;8.640;2023-04-12T05:54:58;7.70;99.90
26342;DHT22;14054;50.108;8.640;2023-04-12T05:57:24;7.70;99.90
26342;DHT22;14054;50.108;8.640;2023-04-12T05:59:49;7.80;99.90
26342;DHT22;14054;50.108;8.640;2023-04-12T06:02:14;7.70;99.90
26342;DHT22;14054;50.108;8.640;2023-04-12T06:04:40;7.70;99.90
26342;DHT22;14054;50.108;8.640;2023-04-12T06:07:06;7.70;99.90
26342;DHT22;14054;50.108;8.640;2023-04-12T06:09:31;7.70;99.90
26342;DHT22;14054;50.108;8.640;2023-04-12T06:11:57;7.70;99.90
26342;DHT22;14054;50.108;8.640;2023-04-12T06:14:22;7.70;99.90
26342;DHT22;14054;50.108;8.640;2023-04-12T06:16:47;7.70;99.90
26342;DHT22;14054;50.108;8.640;2023-04-12T06:19:13;7.70;99.90
26342;DHT22;14054;50.108;8.640;2023-04-12T06:21:38;7.70;99.90
26342;DHT22;14054;50.108;8.640;2023-04-12T06:24:04;7.70;99.90
26342;DHT22;14054;50.108;8.640;2023-04-12T06:26:29;7.70;99.90
26342;DHT22;14054;50.108;8.640;2023-04-12T06:28:55;7.70;99.90
26342;DHT22;14054;50.108;8.640;2023-04-12T06:31:20;7.70;99.90
26342;DHT22;14054;50.108;8.640;2023-04-12T06:33:46;7.70;99.90
26342;DHT22;14054;50.108;8.640;2023-04-12T06:36:11;7.70;99.90
26342;DHT22;14054;50.108;8.640;2023-04-12T06:38:38;7.70;99.90
26342;DHT22;14054;50.108;8.640;2023-04-12T06:41:04;7.70;99.90
26342;DHT22;14054;50.108;8.640;2023-04-12T06:43:30;7.80;99.90
26342;DHT22;14054;50.108;8.640;2023-04-12T06:45:55;7.80;99.90
26342;DHT22;14054;50.108;8.640;2023-04-12T06:48:21;7.70;99.90
26342;DHT22;14054;50.108;8.640;2023-04-12T06:50:46;7.70;99.90
26342;DHT22;14054;50.108;8.640;2023-04-12T06:53:12;7.80;99.90
26342;DHT22;14054;50.108;8.640;2023-04-12T06:55:38;7.70;99.90
26342;DHT22;14054;50.108;8.640;2023-04-12T06:58:03;7.80;99.90
26342;DHT22;14054;50.108;8.640;2023-04-12T07:00:28;7.80;99.90
26342;DHT22;14054;50.108;8.640;2023-04-12T07:02:54;7.80;99.90
26342;DHT22;14054;50.108;8.640;2023-04-12T07:05:20;7.80;99.90
26342;DHT22;14054;50.108;8.640;2023-04-12T07:07:45;7.80;99.90
26342;DHT22;14054;50.108;8.640;2023-04-12T07:10:11;7.80;99.90
26342;DHT22;14054;50.108;8.640;2023-04-12T07:12:36;7.90;99.90
26342;DHT22;14054;50.108;8.640;2023-04-12T07:15:02;8.00;99.90
26342;DHT22;14054;50.108;8.640;2023-04-12T07:17:27;7.90;99.90
26342;DHT22;14054;50.108;8.640;2023-04-12T07:19:53;7.90;99.90
26342;DHT22;14054;50.108;8.640;2023-04-12T07:22:19;8.00;99.90
26342;DHT22;14054;50.108;8.640;2023-04-12T07:24:44;8.00;99.90
26342;DHT22;14054;50.108;8.640;2023-04-12T07:27:10;8.10;99.90
26342;DHT22;14054;50.108;8.640;2023-04-12T07:29:35;8.10;99.90
26342;DHT22;14054;50.108;8.640;2023-04-12T07:32:02;8.00;99.90
26342;DHT22;14054;50.108;8.640;2023-04-12T07:34:27;8.00;99.90
26342;DHT22;14054;50.108;8.640;2023-04-12T07:36:53;8.10;99.90
26342;DHT22;14054;50.108;8.640;2023-04-12T07:39:18;8.10;99.90
26342;DHT22;14054;50.108;8.640;2023-04-12T07:41:44;8.10;99.90
26342;DHT22;14054;50.108;8.640;2023-04-12T07:44:11;8.10;99.90
26342;DHT22;14054;50.108;8.640;2023-04-12T07:46:37;8.20;99.90
26342;DHT22;14054;50.108;8.640;2023-04-12T07:49:03;8.20;99.90
26342;DHT22;14054;50.108;8.640;2023-04-12T07:51:28;8.20;99.90
26342;DHT22;14054;50.108;8.640;2023-04-12T07:53:53;8.20;99.90
26342;DHT22;14054;50.108;8.640;2023-04-12T07:56:19;8.20;99.90
26342;DHT22;14054;50.108;8.640;2023-04-12T07:58:44;8.20;99.90
26342;DHT22;14054;50.108;8.640;2023-04-12T08:01:10;8.30;99.90
26342;DHT22;14054;50.108;8.640;2023-04-12T08:03:36;8.30;99.90
26342;DHT22;14054;50.108;8.640;2023-04-12T08:06:01;8.30;99.90
26342;DHT22;14054;50.108;8.640;2023-04-12T08:08:27;8.30;99.90
26342;DHT22;14054;50.108;8.640;2023-04-12T08:10:52;8.30;99.90
26342;DHT22;14054;50.108;8.640;2023-04-12T08:13:18;8.30;99.90
26342;DHT22;14054;50.108;8.640;2023-04-12T08:15:43;8.40;99.90
26342;DHT22;14054;50.108;8.640;2023-04-12T08:18:11;8.40;99.90
26342;DHT22;14054;50.108;8.640;2023-04-12T08:20:36;8.40;99.90
26342;DHT22;14054;50.108;8.640;2023-04-12T08:23:05;8.30;99.90
26342;DHT22;14054;50.108;8.640;2023-04-12T08:25:30;8.30;99.90
26342;DHT22;14054;50.108;8.640;2023-04-12T08:27:55;8.40;99.90
26342;DHT22;14054;50.108;8.640;2023-04-12T08:30:21;8.40;99.90
26342;DHT22;14054;50.108;8.640;2023-04-12T08:32:51;8.50;99.90
26342;DHT22;14054;50.108;8.640;2023-04-12T08:35:16;8.50;99.90
26342;DHT22;14054;50.108;8.640;2023-04-12T08:37:42;8.40;99.90
26342;DHT22;14054;50.108;8.640;2023-04-12T08:40:07;8.50;99.90
26342;DHT22;14054;50.108;8.640;2023-04-12T08:42:34;8.50;99.90
26342;DHT22;14054;50.108;8.640;2023-04-12T08:45:04;8.50;99.90
26342;DHT22;14054;50.108;8.640;2023-04-12T08:47:31;8.50;99.90
26342;DHT22;14054;50.108;8.640;2023-04-12T08:49:56;8.50;99.90
26342;DHT22;14054;50.108;8.640;2023-04-12T08:52:22;8.60;99.90
26342;DHT22;14054;50.108;8.640;2023-04-12T08:54:47;8.60;99.90
26342;DHT22;14054;50.108;8.640;2023-04-12T08:57:13;8.60;99.90
26342;DHT22;14054;50.108;8.640;2023-04-12T08:59:40;8.50;99.90
26342;DHT22;14054;50.108;8.640;2023-04-12T09:02:06;8.60;99.90
26342;DHT22;14054;50.108;8.640;2023-04-12T09:04:31;8.70;99.90
26342;DHT22;14054;50.108;8.640;2023-04-12T09:06:57;8.70;99.90
26342;DHT22;14054;50.108;8.640;2023-04-12T09:12:07;8.70;99.90
26342;DHT22;14054;50.108;8.640;2023-04-12T09:14:32;8.80;99.90
26342;DHT22;14054;50.108;8.640;2023-04-12T09:16:58;8.80;99.90
26342;DHT22;14054;50.108;8.640;2023-04-12T09:19:29;8.90;99.90
26342;DHT22;14054;50.108;8.640;2023-04-12T09:21:55;9.00;99.90
26342;DHT22;14054;50.108;8.640;2023-04-12T09:24:21;9.00;99.90
26342;DHT22;14054;50.108;8.640;2023-04-12T09:27:04;9.20;99.90
26342;DHT22;14054;50.108;8.640;2023-04-12T09:29:30;9.20;99.90
26342;DHT22;14054;50.108;8.640;2023-04-12T09:34:24;9.20;99.90
26342;DHT22;14054;50.108;8.640;2023-04-12T09:36:50;9.10;99.90
26342;DHT22;14054;50.108;8.640;2023-04-12T09:39:15;9.20;99.90
26342;DHT22;14054;50.108;8.640;2023-04-12T09:41:41;9.20;99.90
26342;DHT22;14054;50.108;8.640;2023-04-12T09:44:06;9.20;99.90
26342;DHT22;14054;50.108;8.640;2023-04-12T09:46:32;9.30;99.90
26342;DHT22;14054;50.108;8.640;2023-04-12T09:48:57;9.50;99.90
26342;DHT22;14054;50.108;8.640;2023-04-12T09:53:49;9.40;99.90
26342;DHT22;14054;50.108;8.640;2023-04-12T09:56:15;9.50;99.90
26342;DHT22;14054;50.108;8.640;2023-04-12T09:58:40;9.50;99.90
26342;DHT22;14054;50.108;8.640;2023-04-12T10:01:07;9.70;99.90
26342;DHT22;14054;50.108;8.640;2023-04-12T10:03:33;9.80;99.90
26342;DHT22;14054;50.108;8.640;2023-04-12T10:05:59;9.90;99.90
26342;DHT22;14054;50.108;8.640;2023-04-12T10:08:25;10.00;99.90
26342;DHT22;14054;50.108;8.640;2023-04-12T10:10:52;10.00;99.90
26342;DHT22;14054;50.108;8.640;2023-04-12T10:13:17;10.10;99.90
26342;DHT22;14054;50.108;8.640;2023-04-12T10:15:44;10.10;99.90
26342;DHT22;14054;50.108;8.640;2023-04-12T10:18:10;10.10;99.90
26342;DHT22;14054;50.108;8.640;2023-04-12T10:20:35;10.00;99.90
26342;DHT22;14054;50.108;8.640;2023-04-12T10:23:04;10.20;99.90
26342;DHT22;14054;50.108;8.640;2023-04-12T10:25:30;10.20;99.90
26342;DHT22;14054;50.108;8.640;2023-04-12T10:27:55;10.10;99.90
26342;DHT22;14054;50.108;8.640;2023-04-12T10:30:27;10.10;99.90
26342;DHT22;14054;50.108;8.640;2023-04-12T10:38:13;10.20;99.90
26342;DHT22;14054;50.108;8.640;2023-04-12T10:40:40;10.10;99.90
26342;DHT22;14054;50.108;8.640;2023-04-12T10:43:24;10.10;99.90
26342;DHT22;14054;50.108;8.640;2023-04-12T10:45:53;10.10;99.90
26342;DHT22;14054;50.108;8.640;2023-04-12T10:48:27;10.30;99.90
26342;DHT22;14054;50.108;8.640;2023-04-12T10:53:38;10.30;99.90
26342;DHT22;14054;50.108;8.640;2023-04-12T11:01:13;10.20;99.90
26342;DHT22;14054;50.108;8.640;2023-04-12T11:04:03;10.20;99.90
26342;DHT22;14054;50.108;8.640;2023-04-12T11:11:46;10.40;99.90
26342;DHT22;14054;50.108;8.640;2023-04-12T11:14:12;10.50;99.90
26342;DHT22;14054;50.108;8.640;2023-04-12T11:17:18;10.50;99.90
26342;DHT22;14054;50.108;8.640;2023-04-12T11:19:40;10.50;99.90
26342;DHT22;14054;50.108;8.640;2023-04-12T11:22:15;10.70;99.90
26342;DHT22;14054;50.108;8.640;2023-04-12T11:24:47;10.80;99.90
26342;DHT22;14054;50.108;8.640;2023-04-12T11:27:13;10.80;99.90
26342;DHT22;14054;50.108;8.640;2023-04-12T11:29:40;10.90;99.90
26342;DHT22;14054;50.108;8.640;2023-04-12T11:32:11;10.90;99.90
26342;DHT22;14054;50.108;8.640;2023-04-12T11:34:40;11.00;99.90
26342;DHT22;14054;50.108;8.640;2023-04-12T11:37:06;11.10;99.90
26342;DHT22;14054;50.108;8.640;2023-04-12T11:39:35;11.20;99.90
26342;DHT22;14054;50.108;8.640;2023-04-12T11:42:01;11.20;99.90
26342;DHT22;14054;50.108;8.640;2023-04-12T11:44:32;11.30;99.90
26342;DHT22;14054;50.108;8.640;2023-04-12T11:46:57;11.40;99.90
26342;DHT22;14054;50.108;8.640;2023-04-12T11:49:23;11.60;99.90
26342;DHT22;14054;50.108;8.640;2023-04-12T11:51:49;11.70;99.90
26342;DHT22;14054;50.108;8.640;2023-04-12T11:54:27;11.70;99.90
26342;DHT22;14054;50.108;8.640;2023-04-12T11:56:54;11.70;99.90
26342;DHT22;14054;50.108;8.640;2023-04-12T11:59:21;11.80;99.90
26342;DHT22;14054;50.108;8.640;2023-04-12T12:01:49;11.80;99.90
26342;DHT22;14054;50.108;8.640;2023-04-12T12:04:14;11.90;99.90
26342;DHT22;14054;50.108;8.640;2023-04-12T12:06:40;11.80;99.90
26342;DHT22;14054;50.108;8.640;2023-04-12T12:09:05;11.80;99.90
26342;DHT22;14054;50.108;8.640;2023-04-12T12:11:31;11.90;99.90
26342;DHT22;14054;50.108;8.640;2023-04-12T12:13:57;12.00;99.90
26342;DHT22;14054;50.108;8.640;2023-04-12T12:16:27;12.00;99.90
26342;DHT22;14054;50.108;8.640;2023-04-12T12:18:53;12.00;99.90
26342;DHT22;14054;50.108;8.640;2023-04-12T12:21:18;12.10;99.90
26342;DHT22;14054;50.108;8.640;2023-04-12T12:23:45;12.10;99.90
26342;DHT22;14054;50.108;8.640;2023-04-12T12:31:06;12.60;99.90
26342;DHT22;14054;50.108;8.640;2023-04-12T12:33:35;12.80;99.90
26342;DHT22;14054;50.108;8.640;2023-04-12T12:36:02;12.70;99.90
26342;DHT22;14054;50.108;8.640;2023-04-12T12:38:37;12.60;99.90
26342;DHT22;14054;50.108;8.640;2023-04-12T12:41:19;12.40;99.90
26342;DHT22;14054;50.108;8.640;2023-04-12T12:43:45;12.40;99.90
26342;DHT22;14054;50.108;8.640;2023-04-12T12:46:11;12.30;99.90
26342;DHT22;14054;50.108;8.640;2023-04-12T12:48:39;12.20;99.90
26342;DHT22;14054;50.108;8.640;2023-04-12T12:51:06;12.10;99.90
26342;DHT22;14054;50.108;8.640;2023-04-12T12:53:32;12.10;99.90
26342;DHT22;14054;50.108;8.640;2023-04-12T12:55:57;12.20;99.90
26342;DHT22;14054;50.108;8.640;2023-04-12T12:58:22;12.20;99.90
26342;DHT22;14054;50.108;8.640;2023-04-12T13:00:48;12.20;99.90
26342;DHT22;14054;50.108;8.640;2023-04-12T13:03:13;12.20;99.90
26342;DHT22;14054;50.108;8.640;2023-04-12T13:05:39;12.10;99.90
26342;DHT22;14054;50.108;8.640;2023-04-12T13:08:04;12.00;99.90
26342;DHT22;14054;50.108;8.640;2023-04-12T13:10:30;11.90;99.90
26342;DHT22;14054;50.108;8.640;2023-04-12T13:12:55;11.80;99.90
26342;DHT22;14054;50.108;8.640;2023-04-12T13:15:21;11.70;99.90
26342;DHT22;14054;50.108;8.640;2023-04-12T13:17:47;11.70;99.90
26342;DHT22;14054;50.108;8.640;2023-04-12T13:20:12;11.60;99.90
26342;DHT22;14054;50.108;8.640;2023-04-12T13:22:38;11.50;99.90
26342;DHT22;14054;50.108;8.640;2023-04-12T13:25:03;11.60;99.90
26342;DHT22;14054;50.108;8.640;2023-04-12T13:27:29;11.50;99.90
26342;DHT22;14054;50.108;8.640;2023-04-12T13:29:54;11.50;99.90
26342;DHT22;14054;50.108;8.640;2023-04-12T13:32:20;11.60;99.90
26342;DHT22;14054;50.108;8.640;2023-04-12T13:34:45;11.70;99.90
26342;DHT22;14054;50.108;8.640;2023-04-12T13:37:11;11.70;99.90
26342;DHT22;14054;50.108;8.640;2023-04-12T13:39:36;11.80;99.90
26342;DHT22;14054;50.108;8.640;2023-04-12T13:42:04;12.00;99.90
26342;DHT22;14054;50.108;8.640;2023-04-12T13:44:30;12.50;99.90
26342;DHT22;14054;50.108;8.640;2023-04-12T13:46:56;13.00;99.90
26342;DHT22;14054;50.108;8.640;2023-04-12T13:51:47;13.40;99.90
26342;DHT22;14054;50.108;8.640;2023-04-12T13:54:13;13.50;99.90
26342;DHT22;14054;50.108;8.640;2023-04-12T14:01:31;14.80;99.90
26342;DHT22;14054;50.108;8.640;2023-04-12T14:03:56;14.60;99.90
26342;DHT22;14054;50.108;8.640;2023-04-12T14:06:22;13.90;99.90
26342;DHT22;14054;50.108;8.640;2023-04-12T14:08:48;13.60;99.90
26342;DHT22;14054;50.108;8.640;2023-04-12T14:11:13;13.30;99.90
26342;DHT22;14054;50.108;8.640;2023-04-12T14:13:39;13.10;99.90
26342;DHT22;14054;50.108;8.640;2023-04-12T14:16:04;12.90;99.90
26342;DHT22;14054;50.108;8.640;2023-04-12T14:18:31;12.80;99.90
26342;DHT22;14054;50.108;8.640;2023-04-12T14:20:57;12.90;99.90
26342;DHT22;14054;50.108;8.640;2023-04-12T14:23:23;12.90;99.90
26342;DHT22;14054;50.108;8.640;2023-04-12T14:25:50;12.80;99.90
26342;DHT22;14054;50.108;8.640;2023-04-12T14:28:16;12.70;99.90
26342;DHT22;14054;50.108;8.640;2023-04-12T14:30:41;12.60;99.90
26342;DHT22;14054;50.108;8.640;2023-04-12T14:33:07;12.50;99.90
26342;DHT22;14054;50.108;8.640;2023-04-12T14:35:33;12.40;99.90
26342;DHT22;14054;50.108;8.640;2023-04-12T14:37:58;12.30;99.90
26342;DHT22;14054;50.108;8.640;2023-04-12T14:40:24;12.20;99.90
26342;DHT22;14054;50.108;8.640;2023-04-12T14:42:49;12.20;99.90
26342;DHT22;14054;50.108;8.640;2023-04-12T14:45:14;12.20;99.90
26342;DHT22;14054;50.108;8.640;2023-04-12T14:47:41;12.20;99.90
26342;DHT22;14054;50.108;8.640;2023-04-12T14:50:07;12.20;99.90
26342;DHT22;14054;50.108;8.640;2023-04-12T14:52:32;12.10;99.90
26342;DHT22;14054;50.108;8.640;2023-04-12T14:54:58;12.10;99.90
26342;DHT22;14054;50.108;8.640;2023-04-12T14:57:23;12.10;99.90
26342;DHT22;14054;50.108;8.640;2023-04-12T14:59:49;12.20;99.90
26342;DHT22;14054;50.108;8.640;2023-04-12T15:02:14;12.20;99.90
26342;DHT22;14054;50.108;8.640;2023-04-12T15:04:41;12.30;99.90
26342;DHT22;14054;50.108;8.640;2023-04-12T15:07:07;12.40;99.90
26342;DHT22;14054;50.108;8.640;2023-04-12T15:09:32;12.60;99.90
26342;DHT22;14054;50.108;8.640;2023-04-12T15:11:58;12.60;99.90
26342;DHT22;14054;50.108;8.640;2023-04-12T15:14:26;12.70;99.90
26342;DHT22;14054;50.108;8.640;2023-04-12T15:16:52;13.00;99.90
26342;DHT22;14054;50.108;8.640;2023-04-12T15:19:18;13.10;99.90
26342;DHT22;14054;50.108;8.640;2023-04-12T15:21:46;13.50;99.90
26342;DHT22;14054;50.108;8.640;2023-04-12T15:24:18;13.50;99.90
26342;DHT22;14054;50.108;8.640;2023-04-12T15:26:43;13.40;99.90
26342;DHT22;14054;50.108;8.640;2023-04-12T15:29:09;13.20;99.90
26342;DHT22;14054;50.108;8.640;2023-04-12T15:31:34;13.20;99.90
26342;DHT22;14054;50.108;8.640;2023-04-12T15:34:00;13.20;99.90
26342;DHT22;14054;50.108;8.640;2023-04-12T15:36:25;13.10;99.90
26342;DHT22;14054;50.108;8.640;2023-04-12T15:38:58;13.10;99.90
26342;DHT22;14054;50.108;8.640;2023-04-12T15:41:23;13.10;99.90
26342;DHT22;14054;50.108;8.640;2023-04-12T15:43:49;13.20;99.90
26342;DHT22;14054;50.108;8.640;2023-04-12T15:46:14;13.30;99.90
26342;DHT22;14054;50.108;8.640;2023-04-12T15:48:40;13.30;99.90
26342;DHT22;14054;50.108;8.640;2023-04-12T15:51:05;13.10;99.90
26342;DHT22;14054;50.108;8.640;2023-04-12T15:53:31;13.00;99.90
26342;DHT22;14054;50.108;8.640;2023-04-12T15:55:57;12.90;99.90
26342;DHT22;14054;50.108;8.640;2023-04-12T15:58:23;12.70;99.90
26342;DHT22;14054;50.108;8.640;2023-04-12T16:00:48;12.70;99.90
26342;DHT22;14054;50.108;8.640;2023-04-12T16:03:14;12.70;99.90
26342;DHT22;14054;50.108;8.640;2023-04-12T16:05:47;12.80;99.90
26342;DHT22;14054;50.108;8.640;2023-04-12T16:08:14;13.00;99.90
26342;DHT22;14054;50.108;8.640;2023-04-12T16:10:39;13.10;99.90
26342;DHT22;14054;50.108;8.640;2023-04-12T16:13:05;13.10;99.90
26342;DHT22;14054;50.108;8.640;2023-04-12T16:15:31;13.00;99.90
26342;DHT22;14054;50.108;8.640;2023-04-12T16:17:58;12.80;99.90
26342;DHT22;14054;50.108;8.640;2023-04-12T16:20:23;12.80;99.90
26342;DHT22;14054;50.108;8.640;2023-04-12T16:22:49;12.80;99.90
26342;DHT22;14054;50.108;8.640;2023-04-12T16:25:18;12.80;99.90
26342;DHT22;14054;50.108;8.640;2023-04-12T16:27:44;12.80;99.90
26342;DHT22;14054;50.108;8.640;2023-04-12T16:30:10;12.70;99.90
26342;DHT22;14054;50.108;8.640;2023-04-12T16:32:36;12.50;99.90